Nearby METAR Reports

 

EGNR - Hawarden (aut), United Kingdom
Distance from station: ESE 33mi, 53km
Updated: 25/03/2019 07:50
Few Clouds
Few Clouds
 Wind from NW
Wind: NW 14 mph , 22 km/h
Temperature: 8°C
Wind Chill: 4°C
Dew Point: 3°C
Humidity: 71%
Barometer: 1034 hPa
Clouds: Few Clouds
Visibility: 6 miles , 10 km
Cloud details: Few Clouds 701 m
2019/03/25 07:50 EGNR 250750Z 32012KT 9999 FEW023 08/03 Q1034
EGOV - Valley Raf, United Kingdom
Distance from station: W 33mi, 53km
Updated: 25/03/2019 07:50
Few Clouds
Few Clouds
 Wind from N
Wind: N 10 mph , 17 km/h
Temperature: 8°C
Wind Chill: 5°C
Dew Point: 4°C
Humidity: 76%
Barometer: 1034 hPa
Clouds: Few Clouds
Visibility: 6 miles , 10 km
Cloud details: Few Clouds 610 m
2019/03/25 07:50 EGOV 250750Z 36009KT 9999 FEW020 08/04 Q1034 BLU TEMPO SCT020 WHT
 
EGGP - Liverpool Airpor, United Kingdom
Distance from station: E 37mi, 59km
Updated: 25/03/2019 07:50
Few Clouds
Few Clouds
 Wind from NW
Wind: NW 12 mph , 19 km/h
Temperature: 8°C
Wind Chill: 4°C
Dew Point: 2°C
Humidity: 66%
Barometer: 1033 hPa
Clouds: Few Clouds
Visibility: 6 miles , 10 km
Cloud details: Few Clouds 610 m
2019/03/25 07:50 EGGP 250750Z 32010KT 290V360 9999 FEW020 08/02 Q1033
EGNH - Blackpool Airpor, United Kingdom
Distance from station: NE 44mi, 72km
Updated: 25/03/2019 07:50
Clear
Clear
 Wind from NW
Wind: NW 16 mph , 26 km/h
Temperature: 7°C
Wind Chill: 3°C
Dew Point: 4°C
Humidity: 81%
Barometer: 1032 hPa
Summary: Clear
Visibility: greater than 7 miles , 10 km
2019/03/25 07:50 EGNH 250750Z 32014KT CAVOK 07/04 Q1032
 
EGNO - Wharton, United Kingdom
Distance from station: NE 47mi, 76km
Updated: 25/03/2019 07:50
Clear
Clear
 Wind from NNW
Wind: NNW 13 mph , 20 km/h
Temperature: 8°C
Wind Chill: 4°C
Dew Point: 4°C
Humidity: 76%
Barometer: 1032 hPa
Summary: Clear
Visibility: greater than 7 miles , 10 km
2019/03/25 07:50 EGNO 250750Z 34011KT 310V010 CAVOK 08/04 Q1032
EGOS - Shawbury Raf, United Kingdom
Distance from station: SE 56mi, 89km
Updated: 25/03/2019 07:50
Few Clouds
Few Clouds
 Wind from NNW
Wind: NNW 10 mph , 17 km/h
Temperature: 6°C
Wind Chill: 3°C
Dew Point: 3°C
Humidity: 81%
Barometer: 1033 hPa
Clouds: Few Clouds
Visibility: 6 miles , 10 km
Cloud details: Few Clouds 366 m
2019/03/25 07:50 EGOS 250750Z 34009KT 9999 FEW012 06/03 Q1033 BLU NOSIG
 
EGCC - Manchester Intl, United Kingdom
Distance from station: E 61mi, 98km
Updated: 25/03/2019 07:50
Clear
Clear
 Wind from WNW
Wind: WNW 7 mph , 11 km/h
Temperature: 6°C
Wind Chill: 4°C
Dew Point: 3°C
Humidity: 81%
Barometer: 1032 hPa
Clouds: Clear
Visibility: 6 miles , 10 km
2019/03/25 07:50 EGCC 250750Z AUTO 30006KT 270V330 9999 NCD 06/03 Q1032 NOSIG
EGNS - Isle Of Man/Rona, United Kingdom
Distance from station: NW 66mi, 107km
Updated: 25/03/2019 07:50
Few Clouds
Few Clouds
 Wind from varies
Wind: varies 5 mph , 7 km/h
Temperature: 7°C
Wind Chill: 6°C
Dew Point: 4°C
Humidity: 81%
Barometer: 1033 hPa
Clouds: Few Clouds
Visibility: 6 miles , 10 km
Cloud details: Few Clouds 549 m
2019/03/25 07:50 EGNS 250750Z VRB04KT 9999 FEW018 07/04 Q1033 NOSIG
 
EGNM - Leeds And Bradfo, United Kingdom
Distance from station: ENE 95mi, 153km
Updated: 25/03/2019 07:50
Clear
Clear
 Wind from WNW
Wind: WNW 15 mph , 24 km/h
Temperature: 5°C
Wind Chill: 1°C
Dew Point: 1°C
Humidity: 76%
Barometer: 1031 hPa
Summary: Clear
Visibility: greater than 7 miles , 10 km
2019/03/25 07:50 EGNM 250750Z 30013KT CAVOK 05/01 Q1031
EGBB - Birmingham Airpo, United Kingdom
Distance from station: ESE 100mi, 161km
Updated: 25/03/2019 07:50
Clear
Clear
 Wind from NW
Wind: NW 14 mph , 22 km/h
Temperature: 6°C
Wind Chill: 2°C
Dew Point: 2°C
Humidity: 76%
Barometer: 1032 hPa
Summary: Clear
Visibility: greater than 7 miles , 10 km
2019/03/25 07:50 EGBB 250750Z 32012KT CAVOK 06/02 Q1032